Time;durP1;ratioP1;P1;durP2;ratioP2;P2;SDS_P1;SDS_P2;PMS_P1;PMS_P2;Temp;Humidity;BMP_temperature;BMP_pressure;BME280_temperature;BME280_humidity;BME280_pressure;Samples;Min_cycle;Max_cycle;Signal;HPM_P1;HPM_P2
2022/04/07 00:01:35;;;;;;;2.58;1.70;;;;;;;13.44;55.04;97581.47;5088604;28;20048;-72
2022/04/07 00:04:06;;;;;;;5.72;1.73;;;;;;;13.35;55.28;97590.28;5088820;28;20044;-72
2022/04/07 00:06:38;;;;;;;2.63;1.50;;;;;;;13.27;56.02;97590.19;5089440;28;20304;-71
2022/04/07 00:09:06;;;;;;;2.55;1.35;;;;;;;13.23;55.95;97588.78;5089547;28;20057;-72
2022/04/07 00:11:36;;;;;;;2.33;1.55;;;;;;;13.23;55.88;97588.78;5088654;28;20040;-72
2022/04/07 00:14:07;;;;;;;1.85;1.25;;;;;;;13.23;55.73;97579.00;5070780;28;20060;-72
2022/04/07 00:16:36;;;;;;;2.58;1.30;;;;;;;13.24;55.61;97577.16;5088418;28;20048;-72
2022/04/07 00:19:07;;;;;;;1.88;1.40;;;;;;;13.22;56.36;97582.63;5088402;28;20044;-71
2022/04/07 00:21:40;;;;;;;3.17;1.42;;;;;;;13.13;57.75;97573.69;5071084;28;20039;-71
2022/04/07 00:24:12;;;;;;;2.10;1.20;;;;;;;13.12;57.63;97566.69;5070885;28;20062;-72
2022/04/07 00:26:42;;;;;;;2.55;1.60;;;;;;;13.10;57.52;97567.81;5088126;28;20041;-72
2022/04/07 00:29:12;;;;;;;2.78;1.60;;;;;;;13.10;58.11;97568.66;5071175;28;20067;-72
2022/04/07 00:31:42;;;;;;;2.00;1.23;;;;;;;13.03;58.06;97578.19;5070420;28;20040;-72
2022/04/07 00:34:12;;;;;;;2.90;1.60;;;;;;;12.96;59.09;97574.44;5088002;28;20037;-72
2022/04/07 00:36:43;;;;;;;2.35;1.50;;;;;;;12.99;58.80;97586.59;5088037;28;20040;-72
2022/04/07 00:39:12;;;;;;;2.08;1.33;;;;;;;12.91;58.72;97578.50;5070942;28;20090;-72
2022/04/07 00:41:45;;;;;;;2.13;1.33;;;;;;;12.82;60.48;97586.34;5070433;28;20048;-72
2022/04/07 00:44:21;;;;;;;3.47;1.38;;;;;;;12.88;59.35;97576.97;5087924;28;20040;-72
2022/04/07 00:46:54;;;;;;;12.82;9.20;;;;;;;12.91;59.39;97566.03;5070611;28;20048;-72
2022/04/07 00:49:27;;;;;;;15.07;11.35;;;;;;;12.92;59.22;97564.22;5087715;28;20047;-72
2022/04/07 00:52:01;;;;;;;8.60;6.22;;;;;;;12.83;60.73;97561.44;5087607;28;20201;-72
2022/04/07 00:54:34;;;;;;;6.50;4.50;;;;;;;12.56;59.32;97528.59;5087847;28;20208;-72
2022/04/07 00:57:07;;;;;;;5.78;3.50;;;;;;;12.78;59.14;97566.34;5087892;28;20047;-71
2022/04/07 00:59:41;;;;;;;2.97;1.50;;;;;;;12.73;58.85;97554.44;5087859;28;20044;-71
2022/04/07 01:02:14;;;;;;;2.17;1.30;;;;;;;12.72;58.54;97566.06;5087577;28;20041;-71
2022/04/07 01:04:46;;;;;;;1.77;1.10;;;;;;;12.71;58.09;97565.22;5087805;28;20047;-71
2022/04/07 01:07:20;;;;;;;1.88;1.20;;;;;;;12.71;58.60;97567.03;5087352;28;20044;-71
2022/04/07 01:09:53;;;;;;;2.10;1.30;;;;;;;12.64;59.33;97564.13;5069888;28;20052;-72
2022/04/07 01:12:26;;;;;;;2.65;1.40;;;;;;;12.59;58.79;97555.72;5087416;28;20048;-72
2022/04/07 01:15:00;;;;;;;3.33;1.52;;;;;;;11.48;58.34;97417.94;5087494;28;20040;-72
2022/04/07 01:17:34;;;;;;;4.35;1.98;;;;;;;12.19;59.47;97505.38;5087268;28;20044;-71
2022/04/07 01:20:08;;;;;;;1.40;1.02;;;;;;;12.43;59.92;97560.75;5087278;28;20211;-71
2022/04/07 01:22:44;;;;;;;;;;;;;;;12.30;61.79;97568.16;5087547;28;20037;-71
2022/04/07 01:25:18;;;;;;;1.73;1.20;;;;;;;12.29;59.89;97562.00;5086988;28;19916;-72
2022/04/07 01:27:50;;;;;;;2.25;1.23;;;;;;;11.98;59.67;97520.53;5087270;28;20040;-72
2022/04/07 01:30:23;;;;;;;1.50;1.10;;;;;;;12.05;60.25;97534.97;5086748;28;20052;-72
2022/04/07 01:32:57;;;;;;;1.88;1.20;;;;;;;12.16;60.54;97564.06;5086837;28;20312;-72
2022/04/07 01:35:30;;;;;;;1.45;1.13;;;;;;;12.15;59.73;97565.03;5087095;28;20047;-72
2022/04/07 01:38:03;;;;;;;3.60;1.15;;;;;;;11.82;60.43;97516.59;5086728;28;20047;-72
2022/04/07 01:40:38;;;;;;;2.90;1.50;;;;;;;12.12;60.24;97560.00;5086558;28;20052;-72
2022/04/07 01:43:12;;;;;;;1.45;1.08;;;;;;;12.09;59.97;97555.81;5086927;28;20048;-72
2022/04/07 01:45:45;;;;;;;1.35;1.00;;;;;;;12.10;59.74;97557.47;5069414;28;20041;-72
2022/04/07 01:48:20;;;;;;;2.20;1.20;;;;;;;11.88;59.85;97515.22;5086870;28;20090;-72
2022/04/07 01:50:52;;;;;;;1.67;1.10;;;;;;;12.05;59.32;97575.63;5053467;28;20040;-72
2022/04/07 01:53:26;;;;;;;1.00;0.90;;;;;;;12.06;58.85;97558.72;5086591;28;20040;-72
2022/04/07 01:56:00;;;;;;;1.50;1.10;;;;;;;12.08;58.88;97563.91;5086491;28;20040;-72
2022/04/07 01:58:33;;;;;;;1.33;1.10;;;;;;;11.29;58.94;97435.63;5086737;28;20201;-72
2022/04/07 02:01:06;;;;;;;1.60;1.10;;;;;;;12.06;58.90;97547.28;5086376;28;20044;-72
2022/04/07 02:03:40;;;;;;;2.55;1.10;;;;;;;12.08;58.24;97547.97;5069017;28;20041;-72
2022/04/07 02:06:13;;;;;;;2.13;1.38;;;;;;;12.09;58.21;97545.19;5086164;28;20053;-71
2022/04/07 02:08:47;;;;;;;1.80;1.20;;;;;;;12.09;57.89;97539.03;5086334;28;20296;-72
2022/04/07 02:11:22;;;;;;;1.30;1.10;;;;;;;11.37;58.04;97419.88;5086030;28;20044;-72
2022/04/07 02:13:54;;;;;;;1.13;1.00;;;;;;;12.09;57.69;97544.34;5086214;28;20051;-72
2022/04/07 02:16:27;;;;;;;1.30;1.00;;;;;;;12.08;57.67;97547.97;5086436;28;20052;-73
2022/04/07 02:19:00;;;;;;;3.42;1.17;;;;;;;12.02;58.36;97541.41;5069034;28;20055;-72
2022/04/07 02:21:32;;;;;;;2.03;1.05;;;;;;;10.76;58.42;97375.72;5068710;28;20051;-72
2022/04/07 02:24:06;;;;;;;2.22;1.20;;;;;;;11.88;59.44;97549.72;5068657;28;20041;-72
2022/04/07 02:26:40;;;;;;;0.98;0.90;;;;;;;11.83;59.34;97555.44;5086128;28;20036;-72
2022/04/07 02:29:08;;;;;;;1.65;1.02;;;;;;;11.87;59.40;97563.97;5086564;28;20029;-72
2022/04/07 02:31:39;;;;;;;1.80;1.10;;;;;;;11.89;58.97;97568.16;5085897;28;20044;-72
2022/04/07 02:34:09;;;;;;;1.85;0.98;;;;;;;11.88;59.13;97557.69;5086033;28;20029;-72
2022/04/07 02:36:39;;;;;;;1.20;0.90;;;;;;;11.87;58.76;97553.34;5068614;28;20040;-72
2022/04/07 02:39:09;;;;;;;1.00;0.90;;;;;;;11.63;59.23;97516.56;5085836;28;20041;-72
2022/04/07 02:41:41;;;;;;;0.98;0.90;;;;;;;11.88;59.28;97550.56;5085957;28;20032;-72
2022/04/07 02:44:10;;;;;;;1.73;1.23;;;;;;;11.88;59.08;97545.25;5085767;28;20040;-72
2022/04/07 02:46:40;;;;;;;1.95;1.45;;;;;;;11.39;59.10;97468.31;5086404;28;20052;-72
2022/04/07 02:49:10;;;;;;;1.70;1.00;;;;;;;11.48;60.40;97499.34;5085743;28;20037;-72
2022/04/07 02:51:40;;;;;;;0.95;0.90;;;;;;;11.74;60.66;97545.66;5051559;28;20044;-72
2022/04/07 02:54:10;;;;;;;2.90;1.40;;;;;;;11.72;60.83;97550.25;5085561;28;20182;-73
2022/04/07 02:56:41;;;;;;;0.90;0.85;;;;;;;11.68;61.78;97553.31;5085799;28;20099;-73
2022/04/07 02:59:10;;;;;;;1.08;0.90;;;;;;;11.66;61.28;97550.78;5085519;28;20063;-72
2022/04/07 03:01:40;;;;;;;2.40;1.00;;;;;;;11.58;62.44;97558.59;5085548;28;20040;-72
2022/04/07 03:04:10;;;;;;;1.65;1.10;;;;;;;11.54;61.49;97562.47;5085462;28;20044;-72
2022/04/07 03:06:41;;;;;;;1.50;1.00;;;;;;;11.49;62.48;97567.34;5067917;28;20116;-72
2022/04/07 03:09:11;;;;;;;1.45;1.00;;;;;;;11.44;63.00;97558.94;5067992;28;20040;-73
2022/04/07 03:11:42;;;;;;;1.08;0.90;;;;;;;11.41;62.68;97564.50;5068284;28;20040;-72
2022/04/07 03:14:11;;;;;;;1.10;0.90;;;;;;;11.03;63.41;97533.34;5085618;28;20040;-73
2022/04/07 03:16:41;;;;;;;1.10;0.90;;;;;;;11.23;63.17;97575.75;5088892;28;20029;-72
2022/04/07 03:19:11;;;;;;;1.10;1.00;;;;;;;11.21;63.54;97575.03;5089695;28;20338;-72
2022/04/07 03:21:41;;;;;;;2.83;1.10;;;;;;;11.11;64.02;97562.69;5072128;28;20048;-72
2022/04/07 03:24:12;;;;;;;2.25;1.00;;;;;;;11.13;65.26;97572.19;5089635;28;20060;-72
2022/04/07 03:26:43;;;;;;;1.42;1.05;;;;;;;11.06;65.05;97570.19;5089243;28;20052;-73
2022/04/07 03:29:12;;;;;;;1.77;1.10;;;;;;;11.04;65.07;97559.72;5089264;28;20247;-72
2022/04/07 03:31:42;;;;;;;1.42;1.00;;;;;;;10.98;65.89;97570.84;5089371;28;20040;-72
2022/04/07 03:34:13;;;;;;;2.10;1.00;;;;;;;10.53;65.83;97483.66;5089114;28;20047;-72
2022/04/07 03:36:43;;;;;;;1.50;1.10;;;;;;;10.96;67.03;97559.53;5089017;28;20063;-72
2022/04/07 03:39:13;;;;;;;1.48;1.33;;;;;;;10.91;67.62;97567.03;5089348;28;20037;-72
2022/04/07 03:41:46;;;;;;;1.67;1.10;;;;;;;10.81;67.59;97577.56;5089282;28;20051;-71
2022/04/07 03:44:15;;;;;;;1.90;0.98;;;;;;;10.82;66.96;97573.13;5071442;28;20340;-71
2022/04/07 03:46:45;;;;;;;2.65;1.35;;;;;;;10.77;67.38;97577.94;5071427;28;20048;-71
2022/04/07 03:49:15;;;;;;;2.30;1.27;;;;;;;10.73;66.93;97584.47;5088753;28;20104;-73
2022/04/07 03:51:46;;;;;;;2.50;1.20;;;;;;;10.74;67.93;97594.09;5088710;28;20048;-71
2022/04/07 03:54:17;;;;;;;1.90;1.13;;;;;;;10.71;68.56;97589.88;5088712;28;20041;-73
2022/04/07 03:56:47;;;;;;;2.35;1.30;;;;;;;10.69;67.81;97596.28;5088940;28;20051;-73
2022/04/07 03:59:16;;;;;;;1.70;1.05;;;;;;;10.70;67.14;97596.16;5088761;28;20047;-72
2022/04/07 04:01:47;;;;;;;1.65;1.10;;;;;;;10.76;67.32;97590.34;5088614;28;20235;-72
2022/04/07 04:04:20;;;;;;;3.22;1.63;;;;;;;10.76;67.15;97592.16;5071155;28;20037;-73
2022/04/07 04:06:47;;;;;;;2.20;1.10;;;;;;;10.79;67.03;97591.94;5088001;28;20320;-72
2022/04/07 04:09:17;;;;;;;2.65;1.40;;;;;;;10.76;67.21;97590.34;5088372;28;20076;-72
2022/04/07 04:11:49;;;;;;;3.05;1.40;;;;;;;10.79;67.36;97595.41;5088596;28;20047;-72
2022/04/07 04:14:18;;;;;;;2.72;1.00;;;;;;;10.78;68.04;97588.44;5088609;28;20043;-72
2022/04/07 04:16:48;;;;;;;1.23;0.90;;;;;;;10.81;67.01;97600.59;5088365;28;20040;-72
2022/04/07 04:19:26;;;;;;;1.75;1.23;;;;;;;3.23;67.77;97223.84;5070904;28;20036;-72
2022/04/07 04:21:56;;;;;;;2.15;1.42;;;;;;;10.75;67.38;97603.72;5070726;28;20041;-73
2022/04/07 04:24:26;;;;;;;3.38;1.30;;;;;;;10.45;67.55;97548.84;5071063;28;20045;-72
2022/04/07 04:26:57;;;;;;;1.25;1.00;;;;;;;10.79;67.75;97602.53;5087543;28;20040;-71
2022/04/07 04:29:27;;;;;;;1.38;1.10;;;;;;;10.80;67.71;97601.56;5088038;28;20285;-71
2022/04/07 04:31:57;;;;;;;1.70;1.20;;;;;;;10.28;67.95;97527.25;5088101;28;20181;-72
2022/04/07 04:34:27;;;;;;;1.95;1.40;;;;;;;9.52;67.04;97400.41;5088279;28;20104;-73
2022/04/07 04:36:57;;;;;;;2.47;1.52;;;;;;;10.77;66.98;97610.59;5088020;28;20041;-73
2022/04/07 04:39:28;;;;;;;2.13;1.25;;;;;;;10.73;67.90;97597.72;5088152;28;20041;-73
2022/04/07 04:41:59;;;;;;;2.30;1.25;;;;;;;10.77;67.64;97596.47;5087879;28;20167;-73
2022/04/07 04:44:28;;;;;;;1.75;1.10;;;;;;;10.74;67.58;97594.09;5070502;28;20090;-73
2022/04/07 04:46:58;;;;;;;1.48;1.10;;;;;;;10.72;67.56;97609.28;5087801;28;20044;-73
2022/04/07 04:49:29;;;;;;;2.33;1.40;;;;;;;10.47;67.11;97557.50;5087936;28;20292;-71
2022/04/07 04:51:59;;;;;;;2.35;1.38;;;;;;;10.71;67.09;97589.88;5087922;28;20043;-71
2022/04/07 04:54:29;;;;;;;1.90;1.10;;;;;;;10.72;66.77;97588.91;5087460;28;20103;-71
2022/04/07 04:57:01;;;;;;;2.17;1.10;;;;;;;10.75;66.85;97586.00;5087662;28;20104;-71
2022/04/07 04:59:30;;;;;;;2.75;1.25;;;;;;;10.77;66.60;97584.09;5069773;28;20247;-71
2022/04/07 05:02:00;;;;;;;1.85;1.20;;;;;;;10.80;66.93;97583.00;5087210;28;20108;-71
2022/04/07 05:04:31;;;;;;;2.08;1.27;;;;;;;10.80;66.49;97577.72;5087558;28;20075;-71
2022/04/07 05:07:00;;;;;;;2.22;1.17;;;;;;;10.78;66.71;97572.53;5087265;28;20056;-71
2022/04/07 05:09:31;;;;;;;1.83;1.15;;;;;;;10.77;67.04;97575.28;5087239;28;20036;-71
2022/04/07 05:12:03;;;;;;;2.08;1.20;;;;;;;10.80;66.69;97586.50;5069768;28;20045;-74
2022/04/07 05:14:31;;;;;;;2.05;1.30;;;;;;;10.60;66.72;97553.69;5087311;28;20064;-71
2022/04/07 05:17:01;;;;;;;2.33;1.50;;;;;;;10.87;66.79;97589.47;5087033;28;20040;-71
2022/04/07 05:19:32;;;;;;;2.53;1.45;;;;;;;10.85;66.72;97586.13;5086989;28;20049;-71
2022/04/07 05:22:02;;;;;;;2.85;1.20;;;;;;;10.89;66.15;97574.28;5087006;28;20047;-71
2022/04/07 05:24:32;;;;;;;3.15;1.90;;;;;;;10.73;66.14;97552.66;5087198;28;20316;-71
2022/04/07 05:27:04;;;;;;;1.75;1.30;;;;;;;10.88;66.23;97583.19;5087139;28;20103;-71
2022/04/07 05:29:33;;;;;;;1.83;1.10;;;;;;;10.87;66.35;97579.72;5087066;28;20059;-71
2022/04/07 05:32:04;;;;;;;2.45;1.52;;;;;;;10.56;66.34;97538.19;5087416;28;20059;-71
2022/04/07 05:34:33;;;;;;;2.80;2.13;;;;;;;10.81;66.21;97574.09;5069592;28;20082;-71
2022/04/07 05:37:04;;;;;;;2.55;1.50;;;;;;;10.90;66.13;97591.88;5086590;28;20112;-71
2022/04/07 05:39:34;;;;;;;2.35;1.35;;;;;;;10.88;66.30;97583.19;5085947;28;20364;-71
2022/04/07 05:42:06;;;;;;;2.22;1.30;;;;;;;10.88;66.38;97588.50;5086635;28;20098;-71
2022/04/07 05:44:34;;;;;;;2.72;1.55;;;;;;;10.89;66.28;97587.53;5068943;28;20053;-73
2022/04/07 05:47:05;;;;;;;3.20;1.30;;;;;;;10.90;66.22;97597.16;5086848;28;20040;-71
2022/04/07 05:49:35;;;;;;;2.30;1.48;;;;;;;10.16;65.91;97479.75;5086574;28;20040;-71
2022/04/07 05:52:06;;;;;;;2.45;1.40;;;;;;;10.95;65.90;97579.06;5086481;28;20082;-73
2022/04/07 05:54:36;;;;;;;2.25;1.33;;;;;;;10.95;66.17;97578.22;5086363;28;20040;-73
2022/04/07 05:57:07;;;;;;;4.35;1.63;;;;;;;10.95;66.94;97579.06;5086415;28;20040;-71
2022/04/07 05:59:36;;;;;;;2.85;1.73;;;;;;;10.96;66.07;97582.56;5068497;28;20056;-71
2022/04/07 06:02:06;;;;;;;2.63;1.40;;;;;;;11.03;65.85;97578.41;5086363;28;20181;-71
2022/04/07 06:04:39;;;;;;;3.35;1.50;;;;;;;10.77;65.79;97528.47;5086404;28;20132;-71
2022/04/07 06:07:07;;;;;;;2.15;1.33;;;;;;;11.04;65.86;97575.63;5068500;28;20115;-71
2022/04/07 06:09:38;;;;;;;2.78;1.50;;;;;;;11.04;66.07;97574.78;5068783;28;20037;-71
2022/04/07 06:12:10;;;;;;;2.92;1.77;;;;;;;11.01;67.35;97577.69;5068833;28;20287;-71
2022/04/07 06:14:38;;;;;;;2.30;1.42;;;;;;;11.00;66.37;97587.47;5085694;28;20059;-74
2022/04/07 06:17:08;;;;;;;2.50;1.35;;;;;;;10.99;66.35;97584.94;5086115;28;20311;-72
2022/04/07 06:19:38;;;;;;;1.95;1.20;;;;;;;11.00;66.36;97586.63;5086022;28;20040;-72
2022/04/07 06:22:11;;;;;;;2.13;1.35;;;;;;;11.02;66.38;97572.28;5086057;28;20064;-72
2022/04/07 06:24:39;;;;;;;2.20;1.40;;;;;;;11.04;66.73;97578.28;5085906;28;20086;-71
2022/04/07 06:27:10;;;;;;;3.00;1.73;;;;;;;11.10;66.54;97572.47;5086029;28;20052;-72
2022/04/07 06:29:39;;;;;;;2.30;1.40;;;;;;;11.17;66.15;97578.06;5085720;28;20051;-71
2022/04/07 06:32:09;;;;;;;3.65;1.60;;;;;;;10.97;65.91;97531.22;5085528;28;20040;-72
2022/04/07 06:34:40;;;;;;;2.70;1.55;;;;;;;11.26;66.17;97576.44;5068082;28;20292;-72
2022/04/07 06:37:10;;;;;;;4.38;1.67;;;;;;;11.30;65.62;97577.88;5085976;28;20036;-71
2022/04/07 06:39:40;;;;;;;2.42;1.50;;;;;;;11.37;65.59;97585.16;5068466;28;20078;-72
2022/04/07 06:42:13;;;;;;;2.97;1.60;;;;;;;11.18;65.58;97535.53;5068200;28;20108;-72
2022/04/07 06:44:41;;;;;;;2.65;1.60;;;;;;;11.50;64.95;97580.47;5085170;28;20056;-72
2022/04/07 06:47:11;;;;;;;3.47;1.70;;;;;;;11.36;64.94;97545.50;5085477;28;20037;-71
2022/04/07 06:49:41;;;;;;;1.98;1.30;;;;;;;11.64;64.58;97578.44;5085767;28;20071;-72
2022/04/07 06:52:12;;;;;;;2.95;1.85;;;;;;;11.72;64.18;97592.69;5067888;28;20060;-72
2022/04/07 06:54:42;;;;;;;2.58;1.65;;;;;;;11.72;64.36;97587.41;5085499;28;20327;-72
2022/04/07 06:57:13;;;;;;;2.45;1.40;;;;;;;11.73;63.79;97583.78;5051539;28;20242;-72
2022/04/07 06:59:42;;;;;;;3.92;1.60;;;;;;;11.77;63.89;97574.56;5085927;28;20048;-72
2022/04/07 07:02:13;;;;;;;2.60;1.50;;;;;;;11.83;63.52;97570.53;5068643;28;20063;-73
2022/04/07 07:04:43;;;;;;;3.72;1.60;;;;;;;11.93;63.63;97573.22;5068084;28;20281;-72
2022/04/07 07:07:14;;;;;;;5.05;2.15;;;;;;;11.98;63.95;97577.13;5085276;28;20048;-71
2022/04/07 07:09:43;;;;;;;5.40;2.78;;;;;;;12.04;63.40;97573.97;5085478;28;20044;-72
2022/04/07 07:12:15;;;;;;;2.33;1.58;;;;;;;12.05;63.16;97580.94;5085479;28;20047;-72
2022/04/07 07:14:44;;;;;;;2.78;1.48;;;;;;;12.02;63.37;97580.38;5085285;28;20219;-73
2022/04/07 07:17:14;;;;;;;3.00;1.70;;;;;;;12.04;63.30;97579.28;5067744;28;20060;-73
2022/04/07 07:19:45;;;;;;;2.42;1.70;;;;;;;12.09;62.94;97581.53;5085460;28;20040;-73
2022/04/07 07:22:15;;;;;;;2.30;1.50;;;;;;;11.71;62.73;97521.19;5085218;28;20236;-73
2022/04/07 07:24:47;;;;;;;3.13;1.73;;;;;;;12.13;63.03;97585.59;5085457;28;20037;-73
2022/04/07 07:27:19;;;;;;;2.58;1.85;;;;;;;12.11;62.88;97588.38;5085420;28;20082;-72
2022/04/07 07:29:51;;;;;;;4.78;1.73;;;;;;;11.80;62.30;97521.22;5085409;28;20083;-73
2022/04/07 07:32:23;;;;;;;2.90;1.63;;;;;;;12.17;62.03;97574.56;5085055;28;20090;-72
2022/04/07 07:34:56;;;;;;;2.38;1.50;;;;;;;12.14;62.09;97580.13;5085130;28;20049;-72
2022/04/07 07:37:29;;;;;;;2.47;1.45;;;;;;;11.96;61.87;97543.72;5085186;28;20082;-73
2022/04/07 07:40:05;;;;;;;2.60;1.60;;;;;;;11.97;62.35;97538.28;5085231;28;20044;-73
2022/04/07 07:42:38;;;;;;;3.20;1.63;;;;;;;12.18;62.08;97581.56;5085224;28;20040;-72
2022/04/07 07:45:11;;;;;;;2.45;1.70;;;;;;;12.18;61.83;97586.03;5085187;28;20048;-73
2022/04/07 07:47:44;;;;;;;2.40;1.33;;;;;;;11.95;62.22;97548.19;5085168;28;20223;-72
2022/04/07 07:50:16;;;;;;;1.98;1.30;;;;;;;12.20;61.78;97573.47;5085288;28;20052;-73
2022/04/07 07:52:49;;;;;;;3.30;1.80;;;;;;;12.19;61.95;97580.59;5067254;28;20048;-73
2022/04/07 07:55:21;;;;;;;3.88;1.83;;;;;;;12.21;61.86;97574.31;5084930;28;20140;-73
2022/04/07 07:57:54;;;;;;;2.97;1.73;;;;;;;12.22;61.84;97575.97;5084844;28;20040;-73
2022/04/07 08:00:27;;;;;;;2.75;1.75;;;;;;;12.23;61.80;97569.69;5084699;28;20044;-72
2022/04/07 08:02:59;;;;;;;2.55;1.75;;;;;;;12.24;62.01;97579.34;5052010;28;20040;-73
2022/04/07 08:05:31;;;;;;;2.85;1.73;;;;;;;12.33;61.85;97573.19;5070606;28;20056;-73
2022/04/07 08:08:04;;;;;;;2.83;1.60;;;;;;;12.41;61.46;97554.75;5088496;28;20044;-72
2022/04/07 08:10:36;;;;;;;3.38;2.08;;;;;;;12.70;60.54;97554.72;5088344;28;20045;-73
2022/04/07 08:13:09;;;;;;;4.28;1.40;;;;;;;12.83;60.29;97553.47;5088275;28;20044;-72
2022/04/07 08:15:42;;;;;;;3.00;1.70;;;;;;;12.94;60.06;97552.47;5070736;28;20244;-73
2022/04/07 08:18:15;;;;;;;2.38;1.50;;;;;;;12.94;59.48;97544.47;5088231;28;20040;-72
2022/04/07 08:20:47;;;;;;;2.80;2.00;;;;;;;12.98;59.46;97545.88;5088406;28;20123;-73
2022/04/07 08:23:19;;;;;;;3.20;1.45;;;;;;;11.99;59.40;97376.22;5088073;28;20040;-72
2022/04/07 08:25:51;;;;;;;2.70;1.60;;;;;;;13.12;58.85;97544.56;5087991;28;20242;-73
2022/04/07 08:28:25;;;;;;;2.35;1.50;;;;;;;13.29;59.00;97546.47;5087878;28;20040;-73
2022/04/07 08:30:57;;;;;;;2.70;1.60;;;;;;;12.95;57.77;97431.81;5087869;28;20288;-73
2022/04/07 08:33:29;;;;;;;2.95;1.70;;;;;;;13.44;57.21;97506.97;5070425;28;20407;-73
2022/04/07 08:36:02;;;;;;;2.90;1.83;;;;;;;13.76;56.79;97541.97;5087763;28;20082;-73
2022/04/07 08:38:34;;;;;;;2.30;1.50;;;;;;;13.77;56.77;97535.66;5087719;28;20040;-73
2022/04/07 08:41:11;;;;;;;3.17;1.73;;;;;;;13.76;56.60;97543.78;5070868;28;20243;-73
2022/04/07 08:43:45;;;;;;;16.63;3.03;;;;;;;13.67;55.67;97531.38;5087717;28;20040;-72
2022/04/07 08:46:17;;;;;;;2.53;1.63;;;;;;;13.65;56.11;97533.34;5087564;28;20097;-72
2022/04/07 08:48:50;;;;;;;2.58;1.52;;;;;;;13.61;56.33;97527.47;5070226;28;20048;-73
2022/04/07 08:51:22;;;;;;;2.75;1.90;;;;;;;13.37;56.54;97488.06;5087542;28;20062;-72
2022/04/07 08:53:54;;;;;;;2.78;1.70;;;;;;;13.60;55.89;97515.16;5070148;28;20307;-73
2022/04/07 08:56:27;;;;;;;2.10;1.60;;;;;;;13.74;56.14;97512.00;5087759;28;20041;-73
2022/04/07 08:59:01;;;;;;;2.83;1.40;;;;;;;13.94;55.38;97511.88;5087438;28;20045;-72
2022/04/07 09:01:33;;;;;;;2.67;1.50;;;;;;;12.54;54.57;97310.00;5069580;28;20051;-73
2022/04/07 09:04:05;;;;;;;2.50;1.70;;;;;;;14.47;53.85;97505.72;5087218;28;20048;-72
2022/04/07 09:06:40;;;;;;;2.58;1.52;;;;;;;14.61;51.84;97481.25;5086894;28;20048;-72
2022/04/07 09:09:14;;;;;;;4.00;1.77;;;;;;;15.05;51.59;97498.03;5069643;28;20048;-72
2022/04/07 09:11:46;;;;;;;2.85;1.65;;;;;;;15.54;51.45;97484.94;5087067;28;20051;-72
2022/04/07 09:14:21;;;;;;;3.97;1.92;;;;;;;15.87;49.93;97496.59;5087040;28;20066;-72
2022/04/07 09:16:55;;;;;;;1.98;1.30;;;;;;;15.93;48.08;97490.59;5087283;28;20066;-72
2022/04/07 09:19:29;;;;;;;2.55;1.65;;;;;;;15.84;49.46;97455.03;5087350;28;20037;-72
2022/04/07 09:22:06;;;;;;;2.45;1.58;;;;;;;16.27;47.95;97474.47;5086984;28;20209;-72
2022/04/07 09:24:39;;;;;;;2.90;1.70;;;;;;;16.43;49.47;97421.00;5086910;28;20094;-72
2022/04/07 09:27:12;;;;;;;4.25;2.20;;;;;;;16.06;47.44;97335.16;5087086;28;20044;-73
2022/04/07 09:29:48;;;;;;;2.35;1.40;;;;;;;16.91;47.02;97456.75;5087068;28;20223;-72
2022/04/07 09:32:21;;;;;;;3.25;1.40;;;;;;;16.95;46.80;97466.09;5086534;28;20040;-72
2022/04/07 09:34:52;;;;;;;1.90;1.30;;;;;;;16.89;45.87;97464.94;5086542;28;20044;-72
2022/04/07 09:37:22;;;;;;;2.45;1.50;;;;;;;16.83;47.72;97454.91;5086167;28;20056;-73
2022/04/07 09:40:02;;;;;;;2.50;1.58;;;;;;;16.87;47.35;97455.41;5086105;28;20227;-73
2022/04/07 09:42:35;;;;;;;2.83;1.92;;;;;;;17.04;47.69;97449.03;5086127;28;20082;-73
2022/04/07 09:45:12;;;;;;;2.35;1.52;;;;;;;15.84;45.52;97299.28;5086643;28;20127;-73
2022/04/07 09:47:45;;;;;;;2.40;1.40;;;;;;;16.65;48.18;97443.56;5086592;28;20358;-73
2022/04/07 09:50:23;;;;;;;2.50;1.53;;;;;;;16.49;46.39;97436.38;5068866;28;20254;-72
2022/04/07 09:52:56;;;;;;;2.30;1.48;;;;;;;16.41;47.01;97431.03;5086336;28;20094;-73
2022/04/07 09:55:32;;;;;;;2.08;1.27;;;;;;;16.29;47.21;97441.22;5068696;28;20048;-72
2022/04/07 09:58:06;;;;;;;2.40;1.40;;;;;;;16.26;46.14;97432.69;5086295;28;20060;-72
2022/04/07 10:00:40;;;;;;;3.08;1.38;;;;;;;16.28;45.73;97442.22;5068982;28;20094;-72
2022/04/07 10:03:14;;;;;;;2.20;1.40;;;;;;;15.78;45.80;97404.09;5068336;28;20296;-72
2022/04/07 10:05:48;;;;;;;2.03;1.20;;;;;;;16.34;45.75;97424.69;5086124;28;20324;-73
2022/04/07 10:08:21;;;;;;;2.75;1.50;;;;;;;16.29;44.58;97438.56;5086045;28;20041;-72
2022/04/07 10:10:53;;;;;;;2.42;1.50;;;;;;;16.36;45.02;97438.72;5086552;28;20048;-72
2022/04/07 10:13:26;;;;;;;2.40;1.60;;;;;;;16.36;43.60;97431.53;5085555;28;20090;-72
2022/04/07 10:16:01;;;;;;;2.63;1.30;;;;;;;16.42;44.20;97426.53;5085811;28;20045;-72
2022/04/07 10:18:39;;;;;;;1.75;1.20;;;;;;;16.19;43.53;97396.97;5085996;28;20177;-72
2022/04/07 10:21:25;;;;;;;2.42;1.42;;;;;;;16.40;42.99;97415.16;5085544;28;20036;-72
2022/04/07 10:24:12;;;;;;;2.05;1.40;;;;;;;16.50;43.25;97418.50;5069025;28;20280;-72
2022/04/07 10:26:47;;;;;;;1.65;1.30;;;;;;;16.59;44.13;97415.66;5085380;28;20044;-72
2022/04/07 10:29:22;;;;;;;1.73;1.25;;;;;;;16.45;44.59;97386.91;5085449;28;20083;-72
2022/04/07 10:32:34;;;;;;;3.28;1.50;;;;;;;16.57;41.46;97396.25;5085743;28;20044;-72
2022/04/07 10:35:08;;;;;;;2.47;1.50;;;;;;;16.50;44.46;97399.78;5085457;28;20044;-73
2022/04/07 10:37:45;;;;;;;2.42;1.35;;;;;;;16.35;40.96;97411.16;5085599;28;20036;-73
2022/04/07 10:40:45;;;;;;;3.30;1.30;;;;;;;16.23;40.79;97384.94;5085390;28;20066;-73
2022/04/07 10:43:22;;;;;;;2.42;1.30;;;;;;;16.40;41.89;97399.13;5085629;28;20236;-72
2022/04/07 10:46:10;;;;;;;1.27;1.10;;;;;;;16.46;40.34;97340.47;5068508;28;20040;-73
2022/04/07 10:48:51;;;;;;;2.45;1.33;;;;;;;16.89;39.09;97382.00;5085185;28;20358;-72
2022/04/07 10:51:42;;;;;;;1.58;1.02;;;;;;;17.02;39.12;97364.56;5085184;28;20216;-73
2022/04/07 10:54:15;;;;;;;1.98;1.05;;;;;;;17.18;41.97;97373.38;5085081;28;20048;-73
2022/04/07 10:56:48;;;;;;;2.60;1.23;;;;;;;17.44;40.84;97351.69;5085450;28;20041;-72
2022/04/07 10:59:22;;;;;;;2.53;1.20;;;;;;;17.71;41.69;97363.78;5085181;28;20181;-73
2022/04/07 11:02:02;;;;;;;2.92;1.45;;;;;;;17.89;39.87;97358.94;5085391;28;20082;-73
2022/04/07 11:04:55;;;;;;;2.40;1.58;;;;;;;17.98;39.15;97358.88;5085208;28;20044;-73
2022/04/07 11:07:27;;;;;;;2.30;1.30;;;;;;;18.02;41.01;97354.84;5084740;28;20048;-72
2022/04/07 11:10:13;;;;;;;1.67;1.10;;;;;;;18.13;38.54;97341.84;5085171;28;20067;-73
2022/04/07 11:13:01;;;;;;;2.35;1.20;;;;;;;18.17;38.01;97343.16;5085049;28;20301;-73
2022/04/07 11:15:50;;;;;;;1.95;1.35;;;;;;;18.29;37.98;97324.78;5068492;28;20292;-73
2022/04/07 11:18:45;;;;;;;2.72;1.60;;;;;;;18.41;37.93;97330.53;5084823;28;20204;-73
2022/04/07 11:21:18;;;;;;;2.25;1.30;;;;;;;18.52;40.01;97312.16;5085029;28;20036;-73
2022/04/07 11:23:53;;;;;;;2.03;1.20;;;;;;;18.41;38.44;97271.53;5085341;28;20235;-73
2022/04/07 11:26:27;;;;;;;2.90;1.58;;;;;;;18.88;39.52;97319.47;5084857;28;20036;-73
2022/04/07 11:29:06;;;;;;;1.17;0.90;;;;;;;19.05;37.09;97320.94;5084967;28;20137;-73
2022/04/07 11:31:48;;;;;;;2.40;1.45;;;;;;;18.78;36.91;97284.88;5084929;28;20045;-73
2022/04/07 11:34:43;;;;;;;1.60;1.13;;;;;;;19.03;36.36;97325.66;5083050;28;20098;-73
2022/04/07 11:37:17;;;;;;;1.83;1.15;;;;;;;18.98;39.03;97298.56;5085541;28;20285;-73
2022/04/07 11:39:51;;;;;;;2.45;1.10;;;;;;;17.70;38.45;97061.25;5088801;28;20200;-73
2022/04/07 11:42:23;;;;;;;2.22;1.27;;;;;;;19.02;38.89;97282.91;5088846;28;20051;-73
2022/04/07 11:45:01;;;;;;;2.22;1.20;;;;;;;19.14;37.82;97279.53;5071527;28;20049;-73
2022/04/07 11:47:33;;;;;;;2.85;1.60;;;;;;;19.23;38.51;97270.34;5088799;28;20040;-73
2022/04/07 11:50:02;;;;;;;2.70;1.30;;;;;;;18.85;38.95;97248.22;5088486;28;20064;-73
2022/04/07 11:52:34;;;;;;;1.88;1.10;;;;;;;18.92;38.03;97277.81;5088429;28;20199;-73
2022/04/07 11:55:04;;;;;;;1.90;1.20;;;;;;;18.98;36.88;97276.25;5088316;28;20056;-73
2022/04/07 11:57:32;;;;;;;1.55;1.17;;;;;;;18.89;38.12;97265.63;5088563;28;20057;-73
2022/04/07 12:00:05;;;;;;;2.60;1.27;;;;;;;18.81;36.61;97271.09;5088345;28;20044;-73